sensor_id;sensor_type;location;lat;lon;timestamp;pressure;altitude;pressure_sealevel;temperature;humidity
15558;BME280;7880;50.110;9.372;2023-05-15T00:03:38;8.606596773216733;;;8.5;100.0
15558;BME280;7880;50.110;9.372;2023-05-15T00:08:48;8.233475403260673;;;8.187;100.0
15558;BME280;7880;50.110;9.372;2023-05-15T00:13:49;8.193138053320581;;;8.0;100.0
15558;BME280;7880;50.110;9.372;2023-05-15T00:18:54;8.036830998235382;;;7.937;100.0
15558;BME280;7880;50.110;9.372;2023-05-15T00:22:26;8.435162432357902;;;8.125;100.0
15558;BME280;7880;50.110;9.372;2023-05-15T00:27:32;8.238517573312857;;;8.125;100.0
15558;BME280;7880;50.110;9.372;2023-05-15T00:32:36;8.344403211638564;;;8.062;100.0
15558;BME280;7880;50.110;9.372;2023-05-15T00:37:39;8.142716392088914;;;8.0;100.0
15558;BME280;7880;50.110;9.372;2023-05-15T00:42:45;7.885566372517497;;;7.75;100.0
15558;BME280;7880;50.110;9.372;2023-05-15T00:47:52;7.643543516192585;;;7.562;100.0
15558;BME280;7880;50.110;9.372;2023-05-15T00:52:58;7.779681290365988;;;7.625;100.0
15558;BME280;7880;50.110;9.372;2023-05-15T00:58:02;7.628417109936708;;;7.562;100.0
15558;BME280;7880;50.110;9.372;2023-05-15T01:03:09;7.653627788485028;;;7.5;100.0
15558;BME280;7880;50.110;9.372;2023-05-15T01:08:19;7.6788384743093046;;;7.562;100.0
15558;BME280;7880;50.110;9.372;2023-05-15T01:13:22;7.69396488929633;;;7.562;100.0
15558;BME280;7880;50.110;9.372;2023-05-15T01:18:31;8.026746681705117;;;7.812;100.0
15558;BME280;7880;50.110;9.372;2023-05-15T01:23:45;7.487237444525817;;;7.375;100.0
15558;BME280;7880;50.110;9.372;2023-05-15T01:28:42;7.577995774667943;;;7.437;100.0
15558;BME280;7880;50.110;9.372;2023-05-15T01:33:52;7.58808003939339;;;7.437;100.0
15558;BME280;7880;50.110;9.372;2023-05-15T01:38:52;7.482195317838341;;;7.437;100.0
15558;BME280;7880;50.110;9.372;2023-05-15T01:43:58;7.547742987476522;;;7.375;100.0
15558;BME280;7880;50.110;9.372;2023-05-15T01:49:09;7.295636835001642;;;7.187;100.0
15558;BME280;7880;50.110;9.372;2023-05-15T01:54:06;7.174626140255714;;;7.062;100.0
15558;BME280;7880;50.110;9.372;2023-05-15T01:59:10;7.59816430528299;;;7.312;100.0
15558;BME280;7880;50.110;9.372;2023-05-15T02:04:15;7.648585652193288;;;7.437;100.0
15558;BME280;7880;50.110;9.372;2023-05-15T02:09:22;7.5830379068851474;;;7.375;100.0
15558;BME280;7880;50.110;9.372;2023-05-15T02:14:28;7.6788384743093046;;;7.437;100.0
15558;BME280;7880;50.110;9.372;2023-05-15T02:19:37;7.497321698773885;;;7.437;100.0
15558;BME280;7880;50.110;9.372;2023-05-15T02:24:40;7.204878798226128;;;7.187;100.0
15558;BME280;7880;50.110;9.372;2023-05-15T02:29:53;7.134289279259974;;;7.062;100.0
15558;BME280;7880;50.110;9.372;2023-05-15T02:34:51;6.9275631590047855;;;6.875;100.0
15558;BME280;7880;50.110;9.372;2023-05-15T02:39:54;7.114120855747023;;;6.875;100.0
15558;BME280;7880;50.110;9.372;2023-05-15T02:45:04;7.2855526040366385;;;7.125;100.0
15558;BME280;7880;50.110;9.372;2023-05-15T02:50:11;6.917478970531374;;;6.937;100.0
15558;BME280;7880;50.110;9.372;2023-05-15T02:55:13;6.786384626314975;;;6.75;100.0
15558;BME280;7880;50.110;9.372;2023-05-15T03:00:19;6.741005860693986;;;6.625;100.0
15558;BME280;7880;50.110;9.372;2023-05-15T03:05:26;6.670416716585168;;;6.562;100.0
15558;BME280;7880;50.110;9.372;2023-05-15T03:10:34;6.9628578278294295;;;6.875;100.0
15558;BME280;7880;50.110;9.372;2023-05-15T03:15:42;6.851931773830438;;;6.75;100.0
15558;BME280;7880;50.110;9.372;2023-05-15T03:25:52;7.003194609662751;;;6.937;100.0
15558;BME280;7880;50.110;9.372;2023-05-15T03:30:55;6.781342540081823;;;6.687;100.0
15558;BME280;7880;50.110;9.372;2023-05-15T03:36:00;6.912436876731226;;;6.75;100.0
15558;BME280;7880;50.110;9.372;2023-05-15T03:41:07;6.8872264120960605;;;6.75;100.0
15558;BME280;7880;50.110;9.372;2023-05-15T03:46:16;6.801510886760662;;;6.75;100.0
15558;BME280;7880;50.110;9.372;2023-05-15T03:51:18;6.841847594088176;;;6.687;100.0
15558;BME280;7880;50.110;9.372;2023-05-15T03:56:24;6.690585037652636;;;6.625;100.0
15558;BME280;7880;50.110;9.372;2023-05-15T04:01:30;6.720837527984986;;;6.625;100.0
15558;BME280;7880;50.110;9.372;2023-05-15T04:06:40;6.574617255106569;;;6.5;100.0
15558;BME280;7880;50.110;9.372;2023-05-15T04:11:42;6.589743478881428;;;6.5;100.0
15558;BME280;7880;50.110;9.372;2023-05-15T04:16:52;6.604869705275632;;;6.562;100.0
15558;BME280;7880;50.110;9.372;2023-05-15T04:21:53;6.725879610725679;;;6.562;100.0
15558;BME280;7880;50.110;9.372;2023-05-15T04:27:02;6.589743478881428;;;6.562;100.0
15558;BME280;7880;50.110;9.372;2023-05-15T04:32:05;6.408228966459864;;;6.375;100.0
15558;BME280;7880;50.110;9.372;2023-05-15T04:37:12;6.619995934289181;;;6.5;100.0
15558;BME280;7880;50.110;9.372;2023-05-15T04:42:26;6.81159506184631;;;6.687;100.0
15558;BME280;7880;50.110;9.372;2023-05-15T04:47:18;6.695627118647098;;;6.625;100.0
15558;BME280;7880;50.110;9.372;2023-05-15T04:52:22;7.063699817337328;;;6.937;100.0
15558;BME280;7880;50.110;9.372;2023-05-15T04:57:27;6.952773635281483;;;6.937;100.0
15558;BME280;7880;50.110;9.372;2023-05-15T05:02:36;6.97294202154153;;;6.875;100.0
15558;BME280;7880;50.110;9.372;2023-05-15T05:07:41;7.341015888750553;;;7.187;100.0
15558;BME280;7880;50.110;9.372;2023-05-15T05:12:45;7.633459245064296;;;7.562;100.0
15558;BME280;7880;50.110;9.372;2023-05-15T05:18:09;7.860355627030367;;;7.75;100.0
15558;BME280;7880;50.110;9.372;2023-05-15T05:23:01;8.016662366339006;;;8.0;100.0
15558;BME280;7880;50.110;9.372;2023-05-15T05:26:30;8.12254773574532;;;8.062;100.0
15558;BME280;7880;50.110;9.372;2023-05-15T05:31:36;8.344403211638564;;;8.312;100.0
15558;BME280;7880;50.110;9.372;2023-05-15T05:36:40;8.566259250981966;;;8.5;100.0
15558;BME280;7880;50.110;9.372;2023-05-15T05:41:46;8.91417099274695;;;8.875;100.0
15558;BME280;7880;50.110;9.372;2023-05-15T05:46:54;9.504111460788408;;;9.5;100.0
15558;BME280;7880;50.110;9.372;2023-05-15T05:52:04;9.741097214911132;;;9.875;100.0
15558;BME280;7880;50.110;9.372;2023-05-15T05:57:01;10.038590880163246;;;10.125;100.0
15558;BME280;7880;50.110;9.372;2023-05-15T06:02:08;10.230197506031255;;;10.312;100.0
15558;BME280;7880;50.110;9.372;2023-05-15T06:07:15;10.356254725926556;;;10.437;100.0
15558;BME280;7880;50.110;9.372;2023-05-15T06:12:30;10.598285098024643;;;10.625;100.0
15558;BME280;7880;50.110;9.372;2023-05-15T06:17:22;10.754596736381064;;;10.812;100.0
15558;BME280;7880;50.110;9.372;2023-05-15T06:22:32;11.042009188444354;;;11.062;100.0
15558;BME280;7880;50.110;9.372;2023-05-15T06:27:33;11.173109919205308;;;11.25;100.0
15558;BME280;7880;50.110;9.372;2023-05-15T06:32:45;11.510947324434529;;;11.5;100.0
15558;BME280;7880;50.110;9.372;2023-05-15T06:37:49;11.732811405748361;;;11.75;100.0
15558;BME280;7880;50.110;9.372;2023-05-15T06:42:51;11.833658901700982;;;11.875;100.0
15558;BME280;7880;50.110;9.372;2023-05-15T06:47:57;11.984930363908642;;;12.062;100.0
15558;BME280;7880;50.110;9.372;2023-05-15T06:53:02;12.156371671060333;;;12.187;100.0
15558;BME280;7880;50.110;9.372;2023-05-15T06:58:17;12.095862936001504;;;12.187;100.0
15558;BME280;7880;50.110;9.372;2023-05-15T07:03:13;12.307643692061538;;;12.312;100.0
15558;BME280;7880;50.110;9.372;2023-05-15T07:08:19;12.448831147985766;;;12.437;100.0
15558;BME280;7880;50.110;9.372;2023-05-15T07:13:21;12.61018851986737;;;12.687;100.0
15558;BME280;7880;50.110;9.372;2023-05-15T07:18:26;12.761461326671997;;;12.75;100.0
15558;BME280;7880;50.110;9.372;2023-05-15T07:23:32;12.922819275973598;;;12.937;100.0
15558;BME280;7880;50.110;9.372;2023-05-15T07:28:38;13.03879548611585;;;13.062;100.0
15558;BME280;7880;50.110;9.372;2023-05-15T07:33:45;13.003498362383107;;;13.062;100.0
15558;BME280;7880;50.110;9.372;2023-05-15T07:38:50;13.205196404369781;;;13.187;100.0
15558;BME280;7880;50.110;9.372;2023-05-15T07:43:55;13.396809975575888;;;13.375;100.0
15558;BME280;7880;50.110;9.372;2023-05-15T07:49:01;13.477489499707008;;;13.5;100.0
15558;BME280;7880;50.110;9.372;2023-05-15T07:54:06;13.568254053412238;;;13.625;100.0
15558;BME280;7880;50.110;9.372;2023-05-15T07:59:25;13.54808414443978;;;13.5;100.0
15558;BME280;7880;50.110;9.372;2023-05-15T08:04:17;13.840548280306393;;;13.75;100.0
15558;BME280;7880;50.110;9.372;2023-05-15T08:09:22;13.790123359445715;;;13.812;100.0
15558;BME280;7880;50.110;9.372;2023-05-15T08:14:27;13.996865719929337;;;13.937;100.0
15558;BME280;7880;50.110;9.372;2023-05-15T08:19:35;14.304458917776355;;;14.25;100.0
15558;BME280;7880;50.110;9.372;2023-05-15T08:24:38;14.314543958992;;;14.312;100.0
15558;BME280;7880;50.110;9.372;2023-05-15T08:29:48;14.501117431465536;;;14.5;100.0
15558;BME280;7880;50.110;9.372;2023-05-15T08:34:47;14.591883048624732;;;14.625;100.0
15558;BME280;7880;50.110;9.372;2023-05-15T08:39:55;14.692733844951727;;;14.75;100.0
15558;BME280;7880;50.110;9.372;2023-05-15T08:44:58;14.949903902510414;;;14.937;100.0
15558;BME280;7880;50.110;9.372;2023-05-15T08:50:12;15.040669985912974;;;15.0;100.0
15558;BME280;7880;50.110;9.372;2023-05-15T08:55:08;15.41886301508639;;;15.312;100.0
15558;BME280;7880;50.110;9.372;2023-05-15T09:00:15;15.449118528142572;;;15.375;100.0
15558;BME280;7880;50.110;9.372;2023-05-15T09:05:19;15.847483760543401;;;15.687;100.0
15558;BME280;7880;50.110;9.372;2023-05-15T09:10:30;15.560055498988367;;;15.562;99.61982469728243
15558;BME280;7880;50.110;9.372;2023-05-15T09:15:31;15.686120409570867;;;15.625;100.0
15558;BME280;7880;50.110;9.372;2023-05-15T09:20:35;15.590311060938983;;;15.562;100.0
15558;BME280;7880;50.110;9.372;2023-05-15T09:25:40;15.746631631260971;;;15.687;100.0
15558;BME280;7880;50.110;9.372;2023-05-15T09:30:43;16.109699841501424;;;16.062;100.0
15558;BME280;7880;50.110;9.372;2023-05-15T09:35:47;15.610481441393494;;;15.75;100.0
15558;BME280;7880;50.110;9.372;2023-05-15T09:41:02;16.029017886618384;;;16.0;100.0
15558;BME280;7880;50.110;9.372;2023-05-15T09:45:58;15.913037707004696;;;16.0;100.0
15558;BME280;7880;50.110;9.372;2023-05-15T09:51:13;16.139955593791093;;;16.187;100.0
15558;BME280;7880;50.110;9.372;2023-05-15T09:56:10;15.696205610275502;;;15.75;100.0
15558;BME280;7880;50.110;9.372;2023-05-15T10:01:18;15.544927721942077;;;15.562;100.0
15558;BME280;7880;50.110;9.372;2023-05-15T10:06:21;15.504586995957652;;;15.5;100.0
15558;BME280;7880;50.110;9.372;2023-05-15T10:11:29;15.474331463692943;;;15.437;100.0
15558;BME280;7880;50.110;9.372;2023-05-15T10:16:33;15.610481441393494;;;15.562;100.0
15558;BME280;7880;50.110;9.372;2023-05-15T10:21:39;15.469288876000792;;;15.437;100.0
15558;BME280;7880;50.110;9.372;2023-05-15T10:26:43;15.23733015677426;;;15.312;100.0
15558;BME280;7880;50.110;9.372;2023-05-15T10:30:47;14.919648562330986;;;15.0;100.0
15558;BME280;7880;50.110;9.372;2023-05-15T10:35:51;14.6776062180812;;;14.687;100.0
15558;BME280;7880;50.110;9.372;2023-05-15T10:40:55;14.702818930987268;;;14.625;100.0
15558;BME280;7880;50.110;9.372;2023-05-15T10:46:02;14.748201832553605;;;14.687;100.0
15558;BME280;7880;50.110;9.372;2023-05-15T10:51:13;15.075967932702042;;;14.937;100.0
15558;BME280;7880;50.110;9.372;2023-05-15T10:56:14;15.257500455738045;;;15.125;100.0
15558;BME280;7880;50.110;9.372;2023-05-15T11:01:26;15.428948184940964;;;15.375;100.0
15558;BME280;7880;50.110;9.372;2023-05-15T11:06:27;15.640737020806409;;;15.562;100.0
15558;BME280;7880;50.110;9.372;2023-05-15T11:11:53;15.560055498988367;;;15.562;100.0
15558;BME280;7880;50.110;9.372;2023-05-15T11:16:55;15.660907412902452;;;15.625;100.0
15558;BME280;7880;50.110;9.372;2023-05-15T11:21:46;15.918080320308217;;;15.812;100.0
15558;BME280;7880;50.110;9.372;2023-05-15T11:26:59;15.978591702651466;;;15.875;100.0
15558;BME280;7880;50.110;9.372;2023-05-15T11:32:30;16.104657217138445;;;16.0;100.0
15558;BME280;7880;50.110;9.372;2023-05-15T11:37:16;16.109699841501424;;;16.062;100.0
15558;BME280;7880;50.110;9.372;2023-05-15T11:42:18;16.644219674455236;;;16.5;100.0
15558;BME280;7880;50.110;9.372;2023-05-15T11:47:30;16.881224797759206;;;16.812;100.0
15558;BME280;7880;50.110;9.372;2023-05-15T11:52:29;16.87113946026657;;;16.937;89.7145563106231
15558;BME280;7880;50.110;9.372;2023-05-15T11:57:33;16.629091709689238;;;16.625;91.80937685532751
15558;BME280;7880;50.110;9.372;2023-05-15T12:02:38;16.729944857605734;;;16.625;93.75354748365667
15558;BME280;7880;50.110;9.372;2023-05-15T12:07:43;16.462684270140016;;;16.562;94.12759324079583
15558;BME280;7880;50.110;9.372;2023-05-15T12:12:48;16.215595020353796;;;16.187;95.61077159805679
15558;BME280;7880;50.110;9.372;2023-05-15T12:17:51;16.331575601600342;;;16.25;94.25378364879057
15558;BME280;7880;50.110;9.372;2023-05-15T12:22:58;16.28114924301044;;;16.187;82.59524178960291
15558;BME280;7880;50.110;9.372;2023-05-15T12:28:02;16.503025438502664;;;16.5;96.51252795346318
15558;BME280;7880;50.110;9.372;2023-05-15T12:33:11;15.428948184940964;;;15.375;100.0
15558;BME280;7880;50.110;9.372;2023-05-15T12:38:08;14.849052809324348;;;14.875;100.0
15558;BME280;7880;50.110;9.372;2023-05-15T12:43:17;14.712904018186965;;;14.75;100.0
15558;BME280;7880;50.110;9.372;2023-05-15T12:48:16;14.788542209292064;;;14.75;100.0
15558;BME280;7880;50.110;9.372;2023-05-15T12:53:21;14.808712404646212;;;14.75;100.0
15558;BME280;7880;50.110;9.372;2023-05-15T12:58:27;14.879308125056559;;;14.812;100.0
15558;BME280;7880;50.110;9.372;2023-05-15T13:03:34;15.222202435607324;;;15.062;100.0
15558;BME280;7880;50.110;9.372;2023-05-15T13:08:38;14.970074135117466;;;14.937;100.0
15558;BME280;7880;50.110;9.372;2023-05-15T13:13:44;14.869223018648336;;;14.812;100.0
15558;BME280;7880;50.110;9.372;2023-05-15T13:18:46;14.934776231111027;;;14.812;100.0
15558;BME280;7880;50.110;9.372;2023-05-15T13:23:51;14.909563451266148;;;14.75;100.0
15558;BME280;7880;50.110;9.372;2023-05-15T13:28:57;15.131436163611943;;;14.937;100.0
15558;BME280;7880;50.110;9.372;2023-05-15T13:34:02;15.131436163611943;;;15.062;100.0
15558;BME280;7880;50.110;9.372;2023-05-15T13:39:12;15.459203701489605;;;15.312;100.0
15558;BME280;7880;50.110;9.372;2023-05-15T13:44:12;15.595353655616055;;;15.437;100.0
15558;BME280;7880;50.110;9.372;2023-05-15T13:49:16;15.897909868840362;;;15.75;96.73280425833167
15558;BME280;7880;50.110;9.372;2023-05-15T13:54:23;15.83235593372956;;;15.75;98.18887306339964
15558;BME280;7880;50.110;9.372;2023-05-15T13:59:26;15.918080320308217;;;15.875;96.13233034362132
15558;BME280;7880;50.110;9.372;2023-05-15T14:04:42;16.210552389879012;;;16.062;92.98220370539501
15558;BME280;7880;50.110;9.372;2023-05-15T14:09:53;15.812185502052307;;;15.875;98.7200380869125
15558;BME280;7880;50.110;9.372;2023-05-15T14:14:46;16.008847409539158;;;15.937;99.36620550712193
15558;BME280;7880;50.110;9.372;2023-05-15T14:19:47;15.721418617130258;;;15.687;100.0
15558;BME280;7880;50.110;9.372;2023-05-15T14:25:04;15.792015075031667;;;15.687;98.89694164663906
15558;BME280;7880;50.110;9.372;2023-05-15T14:29:56;15.827313325373689;;;15.75;95.50112416913585
15558;BME280;7880;50.110;9.372;2023-05-15T14:35:03;15.837398542376468;;;15.75;91.80675917413788
15558;BME280;7880;50.110;9.372;2023-05-15T14:40:09;15.837398542376468;;;15.75;95.89402540473596
15558;BME280;7880;50.110;9.372;2023-05-15T14:45:13;15.953378621581942;;;15.875;91.27530636814464
15558;BME280;7880;50.110;9.372;2023-05-15T14:50:19;16.11474246615544;;;16.125;87.90552150115792
15558;BME280;7880;50.110;9.372;2023-05-15T14:55:24;16.341660876810785;;;16.187;84.65909778195473
15558;BME280;7880;50.110;9.372;2023-05-15T15:00:31;16.472769560484448;;;16.437;84.3541975373259
15558;BME280;7880;50.110;9.372;2023-05-15T15:05:40;16.74507283983403;;;16.75;86.00567464200333
15558;BME280;7880;50.110;9.372;2023-05-15T15:10:43;16.654304985754425;;;16.562;86.85154550635212
15558;BME280;7880;50.110;9.372;2023-05-15T15:15:51;16.664390298217768;;;16.687;87.75089460892
15558;BME280;7880;50.110;9.372;2023-05-15T15:20:52;16.765243486879626;;;16.75;90.62618364498955
15558;BME280;7880;50.110;9.372;2023-05-15T15:25:57;16.709774218709207;;;16.75;91.27786818603944
15558;BME280;7880;50.110;9.372;2023-05-15T15:31:11;16.321490327554056;;;16.437;93.45744451442363
15558;BME280;7880;50.110;9.372;2023-05-15T15:34:55;16.225680282176473;;;16.25;96.21582544017089
15558;BME280;7880;50.110;9.372;2023-05-15T15:39:58;16.533281326998257;;;16.437;100.0
15558;BME280;7880;50.110;9.372;2023-05-15T15:45:03;16.336618239060044;;;16.312;98.57622628781104
15558;BME280;7880;50.110;9.372;2023-05-15T15:50:07;16.200467129802565;;;16.125;100.0
15558;BME280;7880;50.110;9.372;2023-05-15T15:55:13;16.11474246615544;;;16.062;100.0
15558;BME280;7880;50.110;9.372;2023-05-15T16:00:18;15.726461219374324;;;15.687;100.0
15558;BME280;7880;50.110;9.372;2023-05-15T16:05:25;15.726461219374324;;;15.625;100.0
15558;BME280;7880;50.110;9.372;2023-05-15T16:10:28;15.50962958568707;;;15.5;100.0
15558;BME280;7880;50.110;9.372;2023-05-15T16:15:36;15.514672175707528;;;15.5;100.0
15558;BME280;7880;50.110;9.372;2023-05-15T16:20:37;15.21211728961789;;;15.187;100.0
15558;BME280;7880;50.110;9.372;2023-05-15T16:25:43;15.156649007485248;;;15.125;100.0
15558;BME280;7880;50.110;9.372;2023-05-15T16:30:47;14.980159253167221;;;14.937;100.0
15558;BME280;7880;50.110;9.372;2023-05-15T16:35:53;14.813754954212346;;;14.75;100.0
15558;BME280;7880;50.110;9.372;2023-05-15T16:40:58;14.773414565832354;;;14.687;100.0
15558;BME280;7880;50.110;9.372;2023-05-15T16:46:05;15.015457175509074;;;14.875;100.0
15558;BME280;7880;50.110;9.372;2023-05-15T16:51:08;14.954946460225619;;;14.937;100.0
15558;BME280;7880;50.110;9.372;2023-05-15T16:56:14;15.10118076056824;;;15.062;100.0
15558;BME280;7880;50.110;9.372;2023-05-15T17:01:21;14.914606006653049;;;14.875;100.0
15558;BME280;7880;50.110;9.372;2023-05-15T17:06:23;14.818797504069517;;;14.75;100.0
15558;BME280;7880;50.110;9.372;2023-05-15T17:11:32;14.6776062180812;;;14.625;100.0
15558;BME280;7880;50.110;9.372;2023-05-15T17:16:37;14.586840511864285;;;14.5;100.0
15558;BME280;7880;50.110;9.372;2023-05-15T17:21:38;14.798627306387061;;;14.625;100.0
15558;BME280;7880;50.110;9.372;2023-05-15T17:26:43;14.808712404646212;;;14.687;100.0
15558;BME280;7880;50.110;9.372;2023-05-15T17:31:49;14.798627306387061;;;14.75;100.0
15558;BME280;7880;50.110;9.372;2023-05-15T17:36:57;14.657436052995035;;;14.625;100.0
15558;BME280;7880;50.110;9.372;2023-05-15T17:42:03;14.944861345086247;;;14.812;100.0
15558;BME280;7880;50.110;9.372;2023-05-15T17:47:09;14.702818930987268;;;14.625;100.0
15558;BME280;7880;50.110;9.372;2023-05-15T17:52:12;14.455734658247092;;;14.437;100.0
15558;BME280;7880;50.110;9.372;2023-05-15T17:57:17;14.395224330626661;;;14.312;100.0
15558;BME280;7880;50.110;9.372;2023-05-15T18:02:23;14.28428883883753;;;14.187;100.0
15558;BME280;7880;50.110;9.372;2023-05-15T18:07:28;14.259076246712358;;;14.125;100.0
15558;BME280;7880;50.110;9.372;2023-05-15T18:12:34;14.1430984166509;;;14.062;100.0
15558;BME280;7880;50.110;9.372;2023-05-15T18:17:39;14.173353487910935;;;14.0;100.0
15558;BME280;7880;50.110;9.372;2023-05-15T18:22:45;14.243948694929713;;;14.062;100.0
15558;BME280;7880;50.110;9.372;2023-05-15T18:27:48;14.173353487910935;;;14.0;100.0
15558;BME280;7880;50.110;9.372;2023-05-15T18:32:54;14.208651084289887;;;14.062;100.0
15558;BME280;7880;50.110;9.372;2023-05-15T18:38:04;14.01199322892935;;;13.937;100.0
15558;BME280;7880;50.110;9.372;2023-05-15T18:43:10;14.112843355868245;;;13.937;100.0
15558;BME280;7880;50.110;9.372;2023-05-15T18:48:17;14.168310975306667;;;13.937;100.0
15558;BME280;7880;50.110;9.372;2023-05-15T18:53:22;13.94139820933924;;;13.75;100.0
15558;BME280;7880;50.110;9.372;2023-05-15T18:58:27;13.68423112037126;;;13.625;100.0
15558;BME280;7880;50.110;9.372;2023-05-15T19:03:35;13.664061184623279;;;13.562;100.0
15558;BME280;7880;50.110;9.372;2023-05-15T19:08:39;13.830463293805952;;;13.562;100.0
15558;BME280;7880;50.110;9.372;2023-05-15T19:13:44;13.583381488197483;;;13.437;100.0
15558;BME280;7880;50.110;9.372;2023-05-15T19:18:50;13.472447027266025;;;13.375;100.0
15558;BME280;7880;50.110;9.372;2023-05-15T19:23:58;13.42706478839391;;;13.312;100.0
15558;BME280;7880;50.110;9.372;2023-05-15T19:29:03;13.376640106184642;;;13.187;100.0
15558;BME280;7880;50.110;9.372;2023-05-15T19:34:06;13.54808414443978;;;13.312;100.0
15558;BME280;7880;50.110;9.372;2023-05-15T19:39:11;13.578339009644697;;;13.375;100.0
15558;BME280;7880;50.110;9.372;2023-05-15T19:44:21;13.68423112037126;;;13.437;100.0
15558;BME280;7880;50.110;9.372;2023-05-15T19:49:24;13.487574445462087;;;13.375;100.0
15558;BME280;7880;50.110;9.372;2023-05-15T19:54:30;13.336300381371984;;;13.125;100.0
15558;BME280;7880;50.110;9.372;2023-05-15T19:59:36;13.32117298936937;;;13.062;100.0
15558;BME280;7880;50.110;9.372;2023-05-15T20:04:42;13.174941668385873;;;13.0;100.0
15558;BME280;7880;50.110;9.372;2023-05-15T20:09:47;13.215281318692723;;;13.0;100.0
15558;BME280;7880;50.110;9.372;2023-05-15T20:14:52;13.094262423651525;;;12.875;100.0
15558;BME280;7880;50.110;9.372;2023-05-15T20:19:59;13.013583253422984;;;12.812;100.0
15558;BME280;7880;50.110;9.372;2023-05-15T20:25:06;12.821970522735501;;;12.625;100.0
15558;BME280;7880;50.110;9.372;2023-05-15T20:30:18;12.857267573126592;;;12.562;100.0
15558;BME280;7880;50.110;9.372;2023-05-15T20:35:24;12.776588621758856;;;12.562;100.0
15558;BME280;7880;50.110;9.372;2023-05-15T20:39:05;12.69086731756688;;;12.437;100.0
15558;BME280;7880;50.110;9.372;2023-05-15T20:44:08;12.403449440840632;;;12.187;100.0
15558;BME280;7880;50.110;9.372;2023-05-15T20:49:11;12.574891569302418;;;12.187;100.0
15558;BME280;7880;50.110;9.372;2023-05-15T20:54:16;12.373194982507266;;;12.187;100.0
15558;BME280;7880;50.110;9.372;2023-05-15T20:59:20;12.474043217697181;;;12.187;100.0
15558;BME280;7880;50.110;9.372;2023-05-15T21:04:27;12.337898127693915;;;12.125;100.0
15558;BME280;7880;50.110;9.372;2023-05-15T21:09:33;12.146286878973479;;;12.0;100.0
15558;BME280;7880;50.110;9.372;2023-05-15T21:14:38;12.085778150899568;;;11.937;100.0
15558;BME280;7880;50.110;9.372;2023-05-15T21:19:42;12.232007648819126;;;12.062;100.0
15558;BME280;7880;50.110;9.372;2023-05-15T21:24:46;12.085778150899568;;;11.875;100.0
15558;BME280;7880;50.110;9.372;2023-05-15T21:29:51;12.453873561345972;;;12.187;100.0
15558;BME280;7880;50.110;9.372;2023-05-15T21:34:56;12.287474074127385;;;12.062;100.0
15558;BME280;7880;50.110;9.372;2023-05-15T21:40:03;12.232007648819126;;;12.0;100.0
15558;BME280;7880;50.110;9.372;2023-05-15T21:45:13;12.378237391501898;;;12.187;100.0
15558;BME280;7880;50.110;9.372;2023-05-15T21:50:16;12.317728502774845;;;12.125;100.0
15558;BME280;7880;50.110;9.372;2023-05-15T21:55:22;12.347982941899682;;;12.187;100.0
15558;BME280;7880;50.110;9.372;2023-05-15T22:00:28;12.327813314652303;;;12.125;100.0
15558;BME280;7880;50.110;9.372;2023-05-15T22:05:37;12.186626054305815;;;12.062;100.0
15558;BME280;7880;50.110;9.372;2023-05-15T22:10:40;12.211838048347271;;;12.062;100.0
15558;BME280;7880;50.110;9.372;2023-05-15T22:15:46;12.116032509697835;;;11.937;100.0
15558;BME280;7880;50.110;9.372;2023-05-15T22:20:51;11.823574146867031;;;11.75;100.0
15558;BME280;7880;50.110;9.372;2023-05-15T22:25:57;12.015184687782313;;;11.812;100.0
15558;BME280;7880;50.110;9.372;2023-05-15T22:31:04;11.833658901700982;;;11.75;100.0
15558;BME280;7880;50.110;9.372;2023-05-15T22:36:11;11.61683692932129;;;11.5;100.0
15558;BME280;7880;50.110;9.372;2023-05-15T22:41:17;11.858870793879031;;;11.687;100.0
15558;BME280;7880;50.110;9.372;2023-05-15T22:46:29;11.621879294660175;;;11.5;100.0
15558;BME280;7880;50.110;9.372;2023-05-15T22:51:40;11.470608461095253;;;11.375;100.0
15558;BME280;7880;50.110;9.372;2023-05-15T22:56:37;11.52103204317973;;;11.375;100.0
15558;BME280;7880;50.110;9.372;2023-05-15T23:01:46;11.52103204317973;;;11.25;100.0
15558;BME280;7880;50.110;9.372;2023-05-15T23:06:48;11.20840630340972;;;11.125;100.0
15558;BME280;7880;50.110;9.372;2023-05-15T23:11:53;11.349591982836136;;;11.125;100.0
15558;BME280;7880;50.110;9.372;2023-05-15T23:16:58;11.389930790296058;;;11.125;100.0
15558;BME280;7880;50.110;9.372;2023-05-15T23:22:05;11.016797532007331;;;10.937;100.0
15558;BME280;7880;50.110;9.372;2023-05-15T23:27:11;11.05209385305643;;;10.875;100.0
15558;BME280;7880;50.110;9.372;2023-05-15T23:32:21;10.966374240961159;;;10.812;100.0
15558;BME280;7880;50.110;9.372;2023-05-15T23:37:20;10.8756123904197;;;10.75;100.0
15558;BME280;7880;50.110;9.372;2023-05-15T23:42:24;10.64366586744436;;;10.5;100.0